Time;durP1;ratioP1;P1;durP2;ratioP2;P2;SDS_P1;SDS_P2;PMS_P1;PMS_P2;Temp;Humidity;BMP_temperature;BMP_pressure;BME280_temperature;BME280_humidity;BME280_pressure;Samples;Min_cycle;Max_cycle;Signal;HPM_P1;HPM_P2
2022/02/19 00:01:46;;;;;;;11.90;2.15;;;;;;;8.10;52.72;100376.75;4754679;29;20454;-53
2022/02/19 00:04:12;;;;;;;15.57;2.22;;;;;;;8.11;52.36;100388.91;4747581;29;20429;-52
2022/02/19 00:06:38;;;;;;;14.60;2.20;;;;;;;8.15;52.24;100377.69;4755979;29;20050;-55
2022/02/19 00:09:04;;;;;;;21.98;2.28;;;;;;;8.23;52.26;100398.59;4752063;29;20628;-55
2022/02/19 00:11:30;;;;;;;15.35;2.15;;;;;;;8.08;53.07;100409.59;4754069;29;20039;-54
2022/02/19 00:13:56;;;;;;;20.60;2.25;;;;;;;8.11;52.54;100414.84;4755009;29;20622;-54
2022/02/19 00:16:22;;;;;;;13.15;1.98;;;;;;;8.03;52.14;100421.63;4755681;29;20775;-54
2022/02/19 00:18:51;;;;;;;14.88;1.70;;;;;;;8.08;52.75;100430.38;4748276;29;20043;-53
2022/02/19 00:21:17;;;;;;;20.40;2.42;;;;;;;8.24;52.28;100439.25;4754533;29;20090;-55
2022/02/19 00:23:42;;;;;;;16.30;2.30;;;;;;;8.12;52.81;100424.38;4755423;29;20523;-54
2022/02/19 00:26:09;;;;;;;16.05;1.95;;;;;;;8.12;53.21;100439.94;4753468;29;20791;-54
2022/02/19 00:28:35;;;;;;;14.30;2.45;;;;;;;8.29;52.77;100456.69;4757269;29;20147;-55
2022/02/19 00:31:00;;;;;;;17.48;2.70;;;;;;;8.21;52.70;100455.69;4748513;29;20251;-53
2022/02/19 00:33:27;;;;;;;9.25;1.90;;;;;;;8.35;52.17;100476.72;4751199;29;20043;-50
2022/02/19 00:35:53;;;;;;;14.90;2.00;;;;;;;8.31;51.62;100475.78;4749561;29;20047;-53
2022/02/19 00:38:20;;;;;;;20.63;2.35;;;;;;;8.20;51.57;100463.44;4759906;29;20082;-55
2022/02/19 00:40:47;;;;;;;14.50;2.10;;;;;;;8.24;51.46;100480.81;4748948;29;20197;-54
2022/02/19 00:43:14;;;;;;;11.40;2.00;;;;;;;8.27;50.94;100483.47;4750287;29;20078;-54
2022/02/19 00:45:40;;;;;;;15.52;2.05;;;;;;;8.16;51.32;100491.09;4756036;29;20066;-55
2022/02/19 00:48:06;;;;;;;9.20;1.73;;;;;;;8.20;50.99;100492.88;4750854;29;20706;-52
2022/02/19 00:50:32;;;;;;;12.40;2.00;;;;;;;7.88;50.39;100507.00;4759825;29;20565;-54
2022/02/19 00:52:58;;;;;;;15.27;1.95;;;;;;;7.99;50.54;100511.56;4746063;29;20698;-53
2022/02/19 00:55:23;;;;;;;10.60;1.58;;;;;;;8.15;50.42;100512.72;4747138;29;20116;-55
2022/02/19 00:57:49;;;;;;;15.68;1.73;;;;;;;8.14;50.80;100514.44;4747229;29;20094;-54
2022/02/19 01:00:15;;;;;;;17.00;2.03;;;;;;;8.08;51.23;100514.31;4752526;29;20099;-54
2022/02/19 01:02:41;;;;;;;17.60;2.60;;;;;;;8.09;50.84;100515.19;4749780;29;20144;-51
2022/02/19 01:05:07;;;;;;;14.70;2.50;;;;;;;7.98;52.43;100547.88;4746495;29;20555;-53
2022/02/19 01:07:32;;;;;;;17.00;2.25;;;;;;;8.11;52.36;100555.06;4750318;29;20474;-51
2022/02/19 01:09:58;;;;;;;10.57;1.70;;;;;;;8.12;51.90;100543.78;4754123;29;20082;-52
2022/02/19 01:12:23;;;;;;;17.50;2.03;;;;;;;8.29;51.56;100554.50;4753915;29;20523;-54
2022/02/19 01:14:48;;;;;;;14.40;2.28;;;;;;;8.27;51.79;100558.78;4750347;29;20043;-59
2022/02/19 01:17:14;;;;;;;19.88;2.25;;;;;;;8.17;52.34;100567.28;4753597;29;20888;-55
2022/02/19 01:19:39;;;;;;;11.38;1.80;;;;;;;8.30;51.86;100579.59;4753641;29;20108;-56
2022/02/19 01:22:06;;;;;;;12.07;2.10;;;;;;;8.29;51.31;100590.88;4756517;29;20055;-53
2022/02/19 01:24:32;;;;;;;16.50;2.50;;;;;;;8.37;51.16;100587.56;4751677;29;20443;-54
2022/02/19 01:26:58;;;;;;;17.02;2.22;;;;;;;8.42;52.22;100609.31;4745469;29;20047;-54
2022/02/19 01:29:23;;;;;;;18.88;2.53;;;;;;;8.34;52.33;100603.13;4752112;29;20408;-53
2022/02/19 01:31:49;;;;;;;17.63;2.20;;;;;;;8.46;52.48;100615.44;4748163;29;20052;-52
2022/02/19 01:34:14;;;;;;;14.52;1.90;;;;;;;8.29;51.24;100628.09;4757283;29;20099;-50
2022/02/19 01:36:40;;;;;;;10.05;1.70;;;;;;;8.37;50.85;100628.25;4754367;29;20056;-52
2022/02/19 01:39:05;;;;;;;10.57;2.03;;;;;;;8.31;51.06;100621.22;4733671;29;20739;-50
2022/02/19 01:41:31;;;;;;;15.70;2.08;;;;;;;8.09;51.82;100635.50;4751937;29;20051;-53
2022/02/19 01:44:02;;;;;;;14.30;2.30;;;;;;;8.30;50.56;100627.25;4757036;29;20039;-52
2022/02/19 01:46:27;;;;;;;13.25;2.03;;;;;;;8.30;50.85;100650.63;4754130;29;20056;-52
2022/02/19 01:48:53;;;;;;;15.80;2.20;;;;;;;8.29;50.84;100654.06;4745571;29;20647;-50
2022/02/19 01:51:19;;;;;;;11.07;1.92;;;;;;;8.32;51.45;100666.25;4757245;29;20454;-53
2022/02/19 01:53:44;;;;;;;12.55;1.75;;;;;;;8.34;51.43;100680.16;4757818;29;20130;-54
2022/02/19 01:56:10;;;;;;;13.20;2.47;;;;;;;8.37;50.65;100678.50;4749541;29;20121;-54
2022/02/19 01:58:36;;;;;;;23.85;2.28;;;;;;;8.31;51.65;100680.09;4752591;29;20051;-54
2022/02/19 02:01:01;;;;;;;13.65;2.03;;;;;;;8.13;52.34;100690.97;4751422;29;20085;-53
2022/02/19 02:03:27;;;;;;;14.98;1.88;;;;;;;8.27;52.01;100688.66;4752141;29;20507;-53
2022/02/19 02:05:52;;;;;;;14.30;2.00;;;;;;;8.43;51.44;100688.13;4757486;29;20389;-51
2022/02/19 02:08:19;;;;;;;12.88;2.10;;;;;;;8.18;52.17;100709.22;4752483;29;20062;-53
2022/02/19 02:10:46;;;;;;;12.80;2.30;;;;;;;8.18;51.99;100686.72;4754106;29;20047;-55
2022/02/19 02:13:12;;;;;;;12.90;2.08;;;;;;;8.20;51.98;100717.94;4744592;29;20142;-54
2022/02/19 02:15:37;;;;;;;13.85;2.30;;;;;;;8.00;52.48;100723.56;4749554;29;20058;-54
2022/02/19 02:18:03;;;;;;;12.85;2.22;;;;;;;8.01;52.32;100708.88;4756617;29;20154;-54
2022/02/19 02:20:29;;;;;;;13.10;2.13;;;;;;;7.96;52.99;100719.19;4751047;29;20395;-53
2022/02/19 02:22:55;;;;;;;11.45;2.00;;;;;;;7.90;52.54;100716.44;4748749;29;20800;-53
2022/02/19 02:25:31;;;;;;;13.73;2.25;;;;;;;8.05;52.71;100741.88;4756238;29;20413;-50
2022/02/19 02:27:57;;;;;;;18.10;2.42;;;;;;;8.05;52.45;100740.13;4754162;29;20055;-52
2022/02/19 02:30:23;;;;;;;13.18;2.00;;;;;;;8.07;52.31;100754.03;4762938;29;20413;-51
2022/02/19 02:32:49;;;;;;;15.85;2.40;;;;;;;8.10;51.97;100748.03;4748761;29;20158;-55
2022/02/19 02:35:17;;;;;;;14.85;2.25;;;;;;;8.10;52.06;100741.13;4752152;29;20059;-54
2022/02/19 02:37:43;;;;;;;12.55;2.08;;;;;;;8.14;51.71;100763.69;4758532;29;20055;-54
2022/02/19 02:40:10;;;;;;;15.93;2.95;;;;;;;8.21;51.25;100763.84;4754016;29;20043;-51
2022/02/19 02:42:35;;;;;;;11.90;2.10;;;;;;;8.10;51.83;100767.09;4752320;29;20116;-51
2022/02/19 02:45:00;;;;;;;15.13;2.10;;;;;;;8.19;51.86;100760.31;4744168;29;20051;-52
2022/02/19 02:47:26;;;;;;;14.15;2.03;;;;;;;8.17;51.41;100769.81;4756674;29;20118;-53
2022/02/19 02:49:51;;;;;;;22.08;2.60;;;;;;;8.04;51.17;100766.97;4756069;29;20050;-55
2022/02/19 02:52:17;;;;;;;16.17;2.60;;;;;;;8.03;51.39;100782.50;4757907;29;20044;-53
2022/02/19 02:54:42;;;;;;;18.55;2.05;;;;;;;8.07;51.31;100786.91;4759160;29;20075;-54
2022/02/19 02:57:08;;;;;;;14.90;2.00;;;;;;;8.09;51.09;100780.03;4740749;29;20213;-54
2022/02/19 02:59:34;;;;;;;14.52;2.45;;;;;;;8.18;50.82;100784.53;4757302;29;20401;-57
2022/02/19 03:01:59;;;;;;;13.00;1.80;;;;;;;8.01;51.54;100802.34;4752793;29;20464;-49
2022/02/19 03:04:25;;;;;;;17.73;2.28;;;;;;;8.07;51.13;100780.00;4754940;29;20081;-50
2022/02/19 03:06:51;;;;;;;15.48;2.40;;;;;;;8.20;51.09;100806.22;4752822;29;20070;-55
2022/02/19 03:09:16;;;;;;;21.48;2.50;;;;;;;8.00;50.88;100796.25;4755490;29;20067;-50
2022/02/19 03:11:42;;;;;;;14.63;2.40;;;;;;;7.84;51.29;100803.69;4751023;29;20051;-56
2022/02/19 03:14:07;;;;;;;13.60;2.35;;;;;;;8.09;51.14;100798.19;4746808;29;20089;-54
2022/02/19 03:16:33;;;;;;;15.43;2.50;;;;;;;8.18;51.01;100807.91;4762048;29;20499;-54
2022/02/19 03:18:58;;;;;;;21.00;2.38;;;;;;;8.01;51.58;100825.69;4740608;29;20237;-54
2022/02/19 03:21:24;;;;;;;17.20;2.10;;;;;;;7.94;51.24;100824.69;4754511;29;20055;-55
2022/02/19 03:23:52;;;;;;;18.17;2.22;;;;;;;7.84;51.06;100824.44;4754575;29;20055;-53
2022/02/19 03:26:17;;;;;;;13.15;2.38;;;;;;;7.87;50.81;100817.59;4750143;29;20078;-51
2022/02/19 03:28:42;;;;;;;14.52;2.58;;;;;;;7.81;50.65;100848.59;4752590;29;20111;-52
2022/02/19 03:31:08;;;;;;;13.88;2.10;;;;;;;8.06;51.04;100874.28;4744921;29;20043;-53
2022/02/19 03:33:33;;;;;;;14.40;2.67;;;;;;;8.20;50.56;100860.75;4752615;29;20182;-53
2022/02/19 03:35:58;;;;;;;14.65;2.35;;;;;;;8.18;49.97;100860.72;4755654;29;20573;-53
2022/02/19 03:38:24;;;;;;;15.15;2.30;;;;;;;7.90;50.33;100858.34;4745812;29;20040;-53
2022/02/19 03:40:49;;;;;;;13.40;1.83;;;;;;;8.17;50.21;100864.19;4745321;29;20255;-59
2022/02/19 03:43:14;;;;;;;14.45;2.00;;;;;;;8.33;49.73;100881.88;4755173;29;20059;-54
2022/02/19 03:45:43;;;;;;;11.75;2.05;;;;;;;8.22;49.38;100882.44;4755804;29;20644;-55
2022/02/19 03:48:11;;;;;;;15.57;2.47;;;;;;;8.12;49.69;100890.00;4757949;29;20051;-52
2022/02/19 03:50:37;;;;;;;12.60;1.98;;;;;;;8.17;49.59;100899.66;4755362;29;20504;-53
2022/02/19 03:53:04;;;;;;;13.85;1.98;;;;;;;8.17;49.20;100894.47;4744815;29;20073;-54
2022/02/19 03:55:29;;;;;;;17.27;1.90;;;;;;;8.20;49.20;100895.41;4753900;29;20078;-52
2022/02/19 03:57:54;;;;;;;14.30;2.42;;;;;;;8.28;49.14;100898.19;4753789;29;20130;-53
2022/02/19 04:00:20;;;;;;;16.33;2.33;;;;;;;8.21;49.77;100911.84;4755980;29;20044;-54
2022/02/19 04:02:46;;;;;;;16.92;2.08;;;;;;;8.33;49.23;100901.78;4753787;29;20051;-50
2022/02/19 04:05:13;;;;;;;13.15;2.13;;;;;;;8.32;49.84;100923.41;4752105;29;20066;-51
2022/02/19 04:07:38;;;;;;;10.95;2.10;;;;;;;8.30;49.53;100938.03;4755326;29;20051;-53
2022/02/19 04:10:06;;;;;;;15.48;2.13;;;;;;;8.23;49.94;100910.19;4756436;29;20051;-50
2022/02/19 04:12:31;;;;;;;13.77;2.03;;;;;;;8.37;49.74;100937.38;4752533;29;20177;-51
2022/02/19 04:14:57;;;;;;;18.60;2.50;;;;;;;8.25;49.26;100924.94;4746421;29;20078;-51
2022/02/19 04:17:22;;;;;;;7.85;1.70;;;;;;;8.21;49.62;100951.69;4753804;29;20055;-54
2022/02/19 04:19:50;;;;;;;11.48;1.77;;;;;;;8.41;49.47;100960.88;4752577;29;20043;-50
2022/02/19 04:22:16;;;;;;;10.70;1.75;;;;;;;8.48;49.14;100957.56;4753176;29;20047;-51
2022/02/19 04:24:41;;;;;;;11.45;1.70;;;;;;;8.49;49.16;100969.72;4753112;29;20186;-56
2022/02/19 04:27:07;;;;;;;10.25;2.03;;;;;;;8.52;48.94;100962.00;4751127;29;20647;-54
2022/02/19 04:29:32;;;;;;;12.02;2.20;;;;;;;8.37;48.68;100976.34;4756575;29;20051;-54
2022/02/19 04:31:57;;;;;;;15.15;1.70;;;;;;;8.35;49.03;100980.63;4756442;29;20405;-51
2022/02/19 04:34:24;;;;;;;17.55;2.65;;;;;;;8.36;49.59;100978.06;4771570;29;20043;-51
2022/02/19 04:36:50;;;;;;;14.25;2.03;;;;;;;8.30;49.67;100987.38;4747199;29;20047;-52
2022/02/19 04:39:17;;;;;;;18.23;2.10;;;;;;;8.23;50.15;100988.09;4751996;29;20083;-54
2022/02/19 04:41:42;;;;;;;17.25;2.20;;;;;;;8.20;49.99;100975.91;4750722;29;20118;-53
2022/02/19 04:44:08;;;;;;;16.60;2.35;;;;;;;8.13;50.25;101003.44;4753023;29;20053;-54
2022/02/19 04:46:34;;;;;;;15.25;2.33;;;;;;;8.09;50.15;101003.31;4756699;29;20492;-52
2022/02/19 04:48:59;;;;;;;13.05;2.00;;;;;;;8.11;50.35;101012.91;4747024;29;20176;-54
2022/02/19 04:51:24;;;;;;;14.68;2.38;;;;;;;8.12;50.71;101014.66;4754394;29;20043;-53
2022/02/19 04:53:50;;;;;;;16.67;2.15;;;;;;;8.05;50.95;101022.28;4756193;29;20055;-53
2022/02/19 04:56:15;;;;;;;12.23;2.00;;;;;;;8.11;50.92;101025.03;4754224;29;20405;-55
2022/02/19 04:58:41;;;;;;;14.75;2.00;;;;;;;8.12;50.62;101021.56;4752289;29;20070;-50
2022/02/19 05:01:06;;;;;;;17.02;2.33;;;;;;;8.11;50.77;101027.63;4746078;29;20370;-55
2022/02/19 05:03:32;;;;;;;11.93;2.10;;;;;;;8.06;50.72;101037.88;4754523;29;20055;-53
2022/02/19 05:05:57;;;;;;;14.00;1.60;;;;;;;8.00;50.30;101049.81;4752842;29;21133;-55
2022/02/19 05:08:23;;;;;;;16.40;2.17;;;;;;;7.99;51.14;101029.91;4756408;29;20091;-51
2022/02/19 05:10:48;;;;;;;14.15;2.00;;;;;;;7.94;51.39;101021.97;4753616;29;20436;-53
2022/02/19 05:13:13;;;;;;;11.68;1.80;;;;;;;8.07;51.48;101038.75;4753700;29;20051;-52
2022/02/19 05:15:39;;;;;;;16.25;2.67;;;;;;;8.02;51.76;101051.63;4754578;29;20047;-54
2022/02/19 05:18:05;;;;;;;11.52;2.08;;;;;;;8.04;51.22;101039.56;4745825;29;20636;-50
2022/02/19 05:20:31;;;;;;;15.00;2.17;;;;;;;8.07;51.34;101051.72;4769549;29;20128;-52
2022/02/19 05:22:57;;;;;;;15.93;2.10;;;;;;;7.93;51.69;101038.38;4744830;29;20476;-51
2022/02/19 05:25:23;;;;;;;12.90;1.90;;;;;;;8.01;51.17;101055.06;4749798;29;20578;-53
2022/02/19 05:27:48;;;;;;;16.95;1.90;;;;;;;7.96;50.52;101069.63;4749400;29;20117;-54
2022/02/19 05:30:14;;;;;;;12.70;1.80;;;;;;;7.91;50.78;101073.81;4754763;29;20063;-52
2022/02/19 05:32:39;;;;;;;15.75;2.10;;;;;;;7.87;51.11;101058.97;4753261;29;20040;-54
2022/02/19 05:35:05;;;;;;;15.02;2.08;;;;;;;7.99;51.35;101059.31;4747362;29;20043;-55
2022/02/19 05:37:31;;;;;;;14.18;2.00;;;;;;;7.94;51.98;101070.41;4752081;29;20101;-55
2022/02/19 05:39:57;;;;;;;15.45;2.13;;;;;;;7.87;51.85;101058.97;4756427;29;20031;-54
2022/02/19 05:42:22;;;;;;;12.48;2.10;;;;;;;7.91;51.73;101076.41;4757205;29;20051;-53
2022/02/19 05:44:48;;;;;;;14.90;2.00;;;;;;;7.93;51.50;101086.84;4743125;29;20047;-51
2022/02/19 05:47:15;;;;;;;12.40;1.95;;;;;;;7.77;51.62;101082.94;4750294;29;20047;-53
2022/02/19 05:49:41;;;;;;;14.02;1.75;;;;;;;7.99;51.65;101081.81;4753913;29;20054;-52
2022/02/19 05:52:07;;;;;;;11.98;1.77;;;;;;;7.96;51.71;101077.41;4764283;29;20562;-59
2022/02/19 05:54:32;;;;;;;17.73;2.20;;;;;;;8.02;51.96;101090.56;4752109;29;20051;-53
2022/02/19 05:56:57;;;;;;;14.40;2.00;;;;;;;7.94;51.89;101083.41;4739404;29;20514;-55
2022/02/19 05:59:22;;;;;;;19.77;2.55;;;;;;;7.95;51.87;101090.34;4751881;29;20478;-50
2022/02/19 06:01:48;;;;;;;15.38;1.90;;;;;;;7.82;52.02;101102.09;4753139;29;20044;-53
2022/02/19 06:04:13;;;;;;;11.70;1.95;;;;;;;7.78;52.35;101102.00;4743346;29;20658;-54
2022/02/19 06:06:39;;;;;;;18.20;2.15;;;;;;;7.73;52.94;101102.75;4755584;29;20061;-55
2022/02/19 06:09:04;;;;;;;15.10;2.17;;;;;;;7.68;53.50;101103.47;4750002;29;20043;-56
2022/02/19 06:11:29;;;;;;;17.63;2.53;;;;;;;7.72;53.38;101098.38;4751217;29;20054;-55
2022/02/19 06:13:55;;;;;;;15.68;1.80;;;;;;;7.70;53.10;101096.56;4752783;29;20123;-53
2022/02/19 06:16:20;;;;;;;16.50;1.88;;;;;;;7.55;52.98;101096.16;4749284;29;20051;-53
2022/02/19 06:18:46;;;;;;;12.90;2.75;;;;;;;7.81;52.29;101110.72;4746180;29;20043;-52
2022/02/19 06:21:11;;;;;;;12.85;1.80;;;;;;;7.84;52.21;101110.81;4750807;29;20088;-52
2022/02/19 06:23:37;;;;;;;13.15;1.70;;;;;;;7.84;52.28;101103.03;4752378;29;20193;-54
2022/02/19 06:26:03;;;;;;;10.27;1.70;;;;;;;7.80;51.79;101118.50;4755988;29;20196;-54
2022/02/19 06:28:28;;;;;;;11.73;2.03;;;;;;;7.79;51.62;101122.81;4752926;29;20048;-52
2022/02/19 06:30:53;;;;;;;11.63;1.85;;;;;;;7.85;52.09;101130.75;4743098;29;20137;-54
2022/02/19 06:33:19;;;;;;;17.27;2.15;;;;;;;7.78;52.34;101130.53;4751696;29;20478;-54
2022/02/19 06:35:44;;;;;;;16.63;2.05;;;;;;;7.89;52.15;101142.09;4753207;29;20554;-53
2022/02/19 06:38:10;;;;;;;11.15;1.65;;;;;;;7.85;51.36;101137.66;4754068;29;20051;-51
2022/02/19 06:40:35;;;;;;;15.05;2.03;;;;;;;7.77;51.77;101141.75;4753448;29;20044;-53
2022/02/19 06:43:00;;;;;;;15.63;2.00;;;;;;;7.83;51.86;101136.72;4747366;29;20166;-51
2022/02/19 06:45:26;;;;;;;13.38;1.98;;;;;;;7.97;50.90;101157.06;4755888;29;20530;-50
2022/02/19 06:47:51;;;;;;;11.32;1.75;;;;;;;7.90;50.81;101154.25;4764682;29;20141;-50
2022/02/19 06:50:17;;;;;;;8.90;1.63;;;;;;;7.92;51.13;101160.38;4756295;29;20426;-51
2022/02/19 06:52:42;;;;;;;15.73;1.80;;;;;;;7.88;51.30;101151.59;4748915;29;20047;-51
2022/02/19 06:55:08;;;;;;;12.60;1.77;;;;;;;7.97;51.30;101163.97;4736825;29;20571;-54
2022/02/19 06:57:36;;;;;;;14.85;2.20;;;;;;;7.91;51.50;101169.88;4753037;29;20475;-51
2022/02/19 07:00:04;;;;;;;16.00;1.80;;;;;;;7.88;51.61;101158.50;4754741;29;20051;-53
2022/02/19 07:02:29;;;;;;;13.57;2.08;;;;;;;7.93;51.39;101181.16;4745798;29;20135;-52
2022/02/19 07:04:54;;;;;;;12.05;1.95;;;;;;;7.97;51.52;101196.00;4741833;29;20091;-55
2022/02/19 07:07:20;;;;;;;16.77;1.80;;;;;;;7.98;51.29;101191.69;4753305;29;20459;-55
2022/02/19 07:09:45;;;;;;;9.52;1.80;;;;;;;7.85;51.27;101177.47;4755988;29;20555;-54
2022/02/19 07:12:10;;;;;;;13.57;2.03;;;;;;;7.83;51.64;101180.84;4754271;29;20498;-53
2022/02/19 07:14:36;;;;;;;13.75;1.92;;;;;;;7.76;51.79;101197.97;4749623;29;20057;-55
2022/02/19 07:17:04;;;;;;;8.95;1.70;;;;;;;7.90;51.00;101188.00;4743092;29;20055;-55
2022/02/19 07:19:34;;;;;;;14.95;2.13;;;;;;;7.87;51.27;101200.91;4758267;29;20046;-54
2022/02/19 07:21:59;;;;;;;12.88;1.83;;;;;;;7.93;51.04;101194.13;4754522;29;20305;-52
2022/02/19 07:24:25;;;;;;;11.85;1.80;;;;;;;8.05;50.93;101206.63;4757212;29;20047;-54
2022/02/19 07:26:51;;;;;;;10.10;1.70;;;;;;;8.05;50.61;101209.22;4746310;29;20054;-55
2022/02/19 07:29:18;;;;;;;12.27;2.03;;;;;;;8.08;50.70;101207.59;4759257;29;20156;-54
2022/02/19 07:31:43;;;;;;;13.77;1.70;;;;;;;8.06;50.50;101217.03;4758158;29;20619;-55
2022/02/19 07:34:09;;;;;;;12.48;1.90;;;;;;;8.22;51.08;101222.69;4756871;29;20064;-55
2022/02/19 07:36:34;;;;;;;12.25;1.75;;;;;;;8.25;50.11;101214.97;4752492;29;20069;-55
2022/02/19 07:38:59;;;;;;;13.82;1.80;;;;;;;8.34;49.65;101218.75;4748921;29;20754;-51
2022/02/19 07:41:25;;;;;;;12.82;1.90;;;;;;;8.30;49.98;101223.75;4750476;29;20585;-54
2022/02/19 07:43:50;;;;;;;14.90;2.10;;;;;;;8.34;49.79;101229.13;4759362;29;20198;-54
2022/02/19 07:46:15;;;;;;;14.80;1.83;;;;;;;8.27;49.80;101224.56;4755225;29;20583;-53
2022/02/19 07:48:41;;;;;;;9.80;1.70;;;;;;;8.37;50.16;101234.41;4752558;29;20043;-55
2022/02/19 07:59:18;;;;;;;14.77;1.98;;;;;;;8.66;49.46;101239.53;4756459;29;20424;-54
2022/02/19 08:01:44;;;;;;;10.25;1.77;;;;;;;8.73;49.60;101251.81;4754882;29;20171;-53
2022/02/19 08:04:09;;;;;;;12.73;1.80;;;;;;;8.83;49.69;101257.34;4756365;29;20166;-56
2022/02/19 08:06:34;;;;;;;13.32;1.85;;;;;;;8.86;50.21;101259.13;4750608;29;20059;-53
2022/02/19 08:09:00;;;;;;;13.10;2.00;;;;;;;8.87;49.23;101266.09;4752141;29;20535;-55
2022/02/19 08:11:32;;;;;;;15.38;2.00;;;;;;;8.96;49.72;101255.94;4753820;29;20043;-56
2022/02/19 08:13:57;;;;;;;11.60;1.98;;;;;;;9.03;49.15;101268.22;4756349;29;20048;-55
2022/02/19 08:16:24;;;;;;;13.55;1.90;;;;;;;9.03;49.58;101270.84;4755407;29;20218;-52
2022/02/19 08:18:51;;;;;;;14.93;2.10;;;;;;;9.11;49.61;101268.44;4745034;29;20114;-53
2022/02/19 08:21:18;;;;;;;14.00;2.08;;;;;;;9.24;49.10;101267.91;4755340;29;20047;-54
2022/02/19 08:23:43;;;;;;;9.60;1.88;;;;;;;9.27;49.03;101276.66;4755119;29;20059;-51
2022/02/19 08:26:09;;;;;;;14.90;1.88;;;;;;;9.21;49.27;101283.47;4751461;29;20073;-51
2022/02/19 08:28:34;;;;;;;14.98;2.03;;;;;;;9.41;48.40;101273.53;4752073;29;20078;-56
2022/02/19 08:31:00;;;;;;;10.68;1.88;;;;;;;9.46;48.56;101293.59;4747619;29;20441;-53
2022/02/19 08:33:25;;;;;;;14.52;2.25;;;;;;;9.42;48.40;101293.50;4754769;29;20456;-53
2022/02/19 08:35:50;;;;;;;14.73;1.90;;;;;;;9.59;47.68;101294.78;4748018;29;20054;-50
2022/02/19 08:38:16;;;;;;;13.55;1.80;;;;;;;9.52;48.24;101303.28;4754965;29;20556;-53
2022/02/19 08:40:42;;;;;;;14.18;1.90;;;;;;;9.48;48.18;101306.66;4752364;29;20048;-54
2022/02/19 08:43:08;;;;;;;22.52;2.67;;;;;;;9.42;48.82;101299.59;4749057;29;20699;-51
2022/02/19 08:45:34;;;;;;;19.92;1.95;;;;;;;9.48;48.24;101310.16;4757657;29;20211;-52
2022/02/19 08:48:04;;;;;;;15.55;1.73;;;;;;;9.51;48.53;101319.78;4751768;29;20066;-54
2022/02/19 08:50:31;;;;;;;13.50;2.15;;;;;;;9.63;48.53;101307.94;4756328;29;20051;-52
2022/02/19 08:52:58;;;;;;;14.45;1.77;;;;;;;9.65;48.44;101326.16;4747001;29;20047;-52
2022/02/19 08:55:24;;;;;;;13.75;1.83;;;;;;;9.84;47.88;101322.28;4752056;29;20043;-53
2022/02/19 08:57:49;;;;;;;15.00;2.10;;;;;;;10.01;47.16;101324.44;4750916;29;20066;-51
2022/02/19 09:00:15;;;;;;;12.43;1.90;;;;;;;10.08;47.09;101326.31;4756715;29;20046;-52
2022/02/19 09:02:41;;;;;;;10.43;1.70;;;;;;;10.10;46.60;101329.84;4754877;29;20393;-55
2022/02/19 09:05:09;;;;;;;13.93;2.15;;;;;;;10.24;47.18;101334.53;4761430;29;20051;-51
2022/02/19 09:07:35;;;;;;;15.65;1.92;;;;;;;10.27;46.32;101334.59;4756051;29;20042;-54
2022/02/19 09:10:01;;;;;;;15.90;2.13;;;;;;;10.25;46.56;101331.06;4754468;29;20047;-53
2022/02/19 09:12:26;;;;;;;9.50;1.83;;;;;;;10.34;47.08;101324.34;4755277;29;20116;-52
2022/02/19 09:14:51;;;;;;;8.35;1.48;;;;;;;10.46;46.48;101327.19;4745827;29;20113;-53
2022/02/19 09:17:17;;;;;;;12.75;1.95;;;;;;;10.48;46.79;101338.56;4752163;29;20142;-55
2022/02/19 09:19:43;;;;;;;14.82;2.28;;;;;;;10.36;46.67;101332.19;4753491;29;20047;-55
2022/02/19 09:22:08;;;;;;;11.35;1.90;;;;;;;10.38;46.31;101339.19;4752751;29;20585;-50
2022/02/19 09:24:34;;;;;;;12.35;2.28;;;;;;;10.39;46.22;101343.56;4757416;29;20059;-55
2022/02/19 09:27:01;;;;;;;12.05;2.10;;;;;;;10.51;45.82;101335.09;4749778;29;20423;-55
2022/02/19 09:29:27;;;;;;;14.60;1.88;;;;;;;10.49;46.04;101358.53;4757315;29;20059;-55
2022/02/19 09:31:52;;;;;;;13.15;1.88;;;;;;;10.66;45.65;101345.88;4750570;29;20047;-54
2022/02/19 09:34:21;;;;;;;11.95;2.05;;;;;;;10.27;45.99;101352.81;4759925;29;20069;-54
2022/02/19 09:36:47;;;;;;;11.57;2.05;;;;;;;10.30;46.31;101347.69;4749070;29;20051;-53
2022/02/19 09:39:13;;;;;;;10.10;1.65;;;;;;;10.35;45.96;101340.84;4750043;29;20054;-53
2022/02/19 09:41:45;;;;;;;11.63;1.65;;;;;;;10.21;46.77;101344.88;4757769;29;20046;-53
2022/02/19 09:44:10;;;;;;;10.30;1.70;;;;;;;10.32;47.13;101348.59;4751096;29;20055;-56
2022/02/19 09:46:36;;;;;;;11.80;2.10;;;;;;;10.37;47.72;101353.06;4748645;29;20045;-51
2022/02/19 09:49:06;;;;;;;16.33;1.90;;;;;;;10.27;48.37;101355.44;4748639;29;20043;-56
2022/02/19 09:51:33;;;;;;;14.13;2.08;;;;;;;10.34;48.08;101355.59;4749174;29;20048;-51
2022/02/19 09:53:58;;;;;;;21.60;2.35;;;;;;;10.59;47.90;101357.00;4751490;29;20222;-54
2022/02/19 09:56:27;;;;;;;12.50;1.85;;;;;;;10.70;46.70;101365.06;4755630;29;20047;-52
2022/02/19 09:58:54;;;;;;;17.73;2.25;;;;;;;10.80;46.88;101362.66;4739834;29;20489;-54
2022/02/19 10:01:22;;;;;;;17.52;2.08;;;;;;;10.77;46.99;101360.00;4753812;29;20058;-51
2022/02/19 10:03:56;;;;;;;13.60;1.48;;;;;;;10.68;47.32;101378.06;4749309;29;20519;-53
2022/02/19 10:06:27;;;;;;;11.48;2.03;;;;;;;10.73;47.09;101381.66;4752107;29;20365;-55
2022/02/19 10:09:13;;;;;;;13.07;1.80;;;;;;;10.76;47.35;101371.28;4746622;29;21040;-52
2022/02/19 10:11:39;;;;;;;19.63;2.33;;;;;;;10.99;47.03;101382.16;4754412;29;20039;-54
2022/02/19 10:14:35;;;;;;;12.10;1.80;;;;;;;11.13;45.78;101387.66;4751788;29;20103;-52
2022/02/19 10:17:20;;;;;;;15.38;1.70;;;;;;;11.03;45.69;101393.56;4745100;29;20105;-55
2022/02/19 10:20:06;;;;;;;7.13;1.42;;;;;;;11.07;45.67;101384.94;4757365;29;20465;-53
2022/02/19 10:22:44;;;;;;;12.85;2.08;;;;;;;11.13;45.81;101390.28;4750820;29;20813;-55
2022/02/19 10:25:15;;;;;;;9.00;2.15;;;;;;;10.85;46.41;101394.97;4741724;29;21962;-53
2022/02/19 10:27:55;;;;;;;13.55;1.75;;;;;;;11.10;46.15;101405.88;4752590;29;20113;-52
2022/02/19 10:30:22;;;;;;;13.60;2.00;;;;;;;10.98;46.21;101389.09;4750149;29;20138;-53
2022/02/19 10:33:00;;;;;;;13.07;1.98;;;;;;;11.32;45.54;101381.94;4744790;29;20089;-50
2022/02/19 10:35:37;;;;;;;12.18;1.67;;;;;;;11.23;45.79;101386.97;4741429;29;20058;-53
2022/02/19 10:38:08;;;;;;;16.90;2.38;;;;;;;11.19;45.96;101374.72;4752655;29;20055;-54
2022/02/19 10:40:42;;;;;;;15.75;1.90;;;;;;;11.22;46.25;101372.19;4751770;29;20397;-53
2022/02/19 10:43:10;;;;;;;9.50;1.98;;;;;;;11.55;45.48;101380.63;4748264;29;20358;-55
2022/02/19 10:45:50;;;;;;;11.45;1.98;;;;;;;11.30;45.63;101386.25;4750670;29;20131;-55
2022/02/19 10:48:23;;;;;;;11.57;1.90;;;;;;;11.31;45.81;101391.50;4750708;29;20066;-54
2022/02/19 10:51:15;;;;;;;14.00;1.83;;;;;;;11.30;45.66;101394.94;4750094;29;20145;-52
2022/02/19 10:53:45;;;;;;;8.70;1.70;;;;;;;11.38;46.26;101385.53;4754660;29;20043;-56
2022/02/19 10:56:17;;;;;;;12.80;2.10;;;;;;;11.06;46.54;101386.66;4757702;29;20043;-52
2022/02/19 10:58:59;;;;;;;10.50;1.83;;;;;;;11.12;46.26;101388.50;4760926;29;20054;-54
2022/02/19 11:01:25;;;;;;;13.15;1.85;;;;;;;11.00;46.35;101383.94;4759353;29;20051;-51
2022/02/19 11:03:51;;;;;;;13.05;2.08;;;;;;;11.24;46.28;101392.22;4758426;29;20126;-53
2022/02/19 11:06:17;;;;;;;10.98;1.70;;;;;;;11.47;45.54;101394.38;4752424;29;20130;-55
2022/02/19 11:08:45;;;;;;;10.63;2.22;;;;;;;11.55;45.82;101382.34;4757198;29;20047;-54
2022/02/19 11:11:11;;;;;;;16.05;2.50;;;;;;;11.64;45.72;101379.91;4745650;29;20359;-54
2022/02/19 11:13:38;;;;;;;8.57;1.60;;;;;;;11.59;45.51;101378.91;4755898;29;20056;-53
2022/02/19 11:16:07;;;;;;;13.00;1.60;;;;;;;11.85;45.16;101374.16;4762549;29;20151;-56
2022/02/19 11:18:33;;;;;;;15.30;1.63;;;;;;;12.04;44.09;101387.56;4756432;29;20059;-53
2022/02/19 11:21:01;;;;;;;10.55;1.70;;;;;;;12.13;43.99;101371.16;4751952;29;20059;-55
2022/02/19 11:23:29;;;;;;;7.88;1.73;;;;;;;12.44;43.77;101362.00;4757074;29;20053;-55
2022/02/19 11:25:57;;;;;;;12.63;1.80;;;;;;;12.30;43.02;101372.28;4754511;29;20047;-55
2022/02/19 11:28:23;;;;;;;9.52;1.67;;;;;;;11.79;42.72;101374.94;4749784;29;20480;-56
2022/02/19 11:30:55;;;;;;;8.98;1.48;;;;;;;11.78;43.53;101387.13;4750983;29;20035;-51